Terminal Aerodrome Forecast
Issued by NWS

Home | Current Version | Previous Version | Text Only | Print | Product List | Glossary On
Versions: 1 2 3 4 5 6 7 8 9 10 11 12 13 14 15 16 17 18
000
FTAK31 PAJN 260400 AAA
TAFAGY
TAF AMD
PAGY 260415Z 2604/2624 03005KT P6SM BKN025 BKN050
      TEMPO 2604/2608 5SM BR
     FM260800 03010KT P6SM SCT050 BKN100
     FM261400 03012G25KT P6SM SCT100
     FM262100 04020G34KT P6SM SCT150
      AMD LTD TO CLD VIS AND WIND=

USA.gov is the U.S. government's official web portal to all federal, state and local government web resources and services.